TimeCST,TemperatureF,Dew PointF,Humidity,Sea Level PressureIn,VisibilityMPH,Wind Direction,Wind SpeedMPH,Gust SpeedMPH,PrecipitationIn,Events,Conditions,WindDirDegrees,DateUTC
12:15 AM,36.0,4.5,27,29.62,10.0,South,21.9,27.6,N/A,,Clear,170,2014-01-30 06:15:00
12:35 AM,36.9,4.5,26,29.60,10.0,South,24.2,29.9,N/A,,Clear,180,2014-01-30 06:35:00
12:55 AM,37.4,4.3,25,29.59,10.0,South,21.9,28.8,N/A,,Clear,180,2014-01-30 06:55:00
1:15 AM,38.1,4.5,25,29.59,10.0,South,21.9,-,N/A,,Mostly Cloudy,190,2014-01-30 07:15:00
1:35 AM,38.3,4.3,24,29.58,10.0,South,26.5,-,N/A,,Overcast,180,2014-01-30 07:35:00
1:55 AM,38.5,4.5,24,29.57,10.0,South,24.2,-,N/A,,Overcast,180,2014-01-30 07:55:00
2:15 AM,38.7,4.5,24,29.54,10.0,South,24.2,28.8,N/A,,Overcast,170,2014-01-30 08:15:00
2:35 AM,38.8,4.5,24,29.52,10.0,South,25.3,31.1,N/A,,Overcast,170,2014-01-30 08:35:00
2:55 AM,39.2,4.6,24,29.52,10.0,South,23.0,28.8,N/A,,Overcast,170,2014-01-30 08:55:00
3:15 AM,38.8,4.8,24,29.50,10.0,South,24.2,29.9,N/A,,Overcast,170,2014-01-30 09:15:00
3:35 AM,38.7,4.8,24,29.47,10.0,SSE,25.3,32.2,N/A,,Mostly Cloudy,160,2014-01-30 09:35:00
3:55 AM,38.7,5.0,25,29.45,10.0,South,26.5,33.4,N/A,,Mostly Cloudy,170,2014-01-30 09:55:00
4:15 AM,38.7,5.2,25,29.44,10.0,South,31.1,35.7,N/A,,Scattered Clouds,180,2014-01-30 10:15:00
4:35 AM,38.7,5.7,25,29.44,10.0,South,28.8,36.8,N/A,,Mostly Cloudy,180,2014-01-30 10:35:00
4:55 AM,38.3,5.9,26,29.47,10.0,South,23.0,33.4,N/A,,Mostly Cloudy,190,2014-01-30 10:55:00
5:15 AM,38.7,6.3,26,29.48,10.0,South,23.0,31.1,N/A,,Mostly Cloudy,190,2014-01-30 11:15:00
5:35 AM,38.8,6.6,26,29.47,10.0,South,24.2,32.2,N/A,,Overcast,190,2014-01-30 11:35:00
5:55 AM,38.5,6.8,27,29.47,10.0,South,27.6,33.4,N/A,,Overcast,190,2014-01-30 11:55:00
6:15 AM,38.5,7.2,27,29.45,10.0,South,25.3,34.5,N/A,,Overcast,190,2014-01-30 12:15:00
6:35 AM,36.7,15.4,42,29.46,10.0,South,23.0,34.5,N/A,Rain,Light Rain,190,2014-01-30 12:35:00
6:55 AM,37.8,11.3,34,29.46,10.0,South,20.7,35.7,N/A,,Overcast,190,2014-01-30 12:55:00
7:15 AM,38.3,10.0,31,29.48,10.0,SSW,23.0,33.4,N/A,,Overcast,200,2014-01-30 13:15:00
7:35 AM,38.7,9.3,30,29.49,10.0,SSW,25.3,32.2,N/A,,Overcast,200,2014-01-30 13:35:00
7:55 AM,38.7,9.1,30,29.49,10.0,SSW,23.0,36.8,N/A,,Overcast,200,2014-01-30 13:55:00
8:15 AM,38.3,9.0,30,29.50,10.0,SSW,23.0,29.9,N/A,,Mostly Cloudy,200,2014-01-30 14:15:00
8:35 AM,38.7,9.3,30,29.51,10.0,SSW,23.0,32.2,N/A,,Mostly Cloudy,210,2014-01-30 14:35:00
8:55 AM,39.2,9.5,29,29.53,10.0,SSW,19.6,31.1,N/A,,Overcast,210,2014-01-30 14:55:00
9:15 AM,39.4,9.7,29,29.55,10.0,SW,19.6,27.6,N/A,,Overcast,220,2014-01-30 15:15:00
9:35 AM,40.1,10.2,29,29.57,10.0,SW,17.3,24.2,N/A,,Overcast,230,2014-01-30 15:35:00
9:55 AM,41.5,10.4,28,29.59,10.0,West,20.7,26.5,N/A,,Overcast,260,2014-01-30 15:55:00
10:15 AM,38.3,21.2,50,29.62,10.0,WNW,23.0,31.1,N/A,,Overcast,290,2014-01-30 16:15:00
10:35 AM,34.7,21.2,58,29.65,10.0,NW,18.4,31.1,N/A,,Overcast,310,2014-01-30 16:35:00
10:55 AM,33.6,20.7,59,29.67,10.0,NW,21.9,29.9,N/A,,Scattered Clouds,310,2014-01-30 16:55:00
11:15 AM,33.4,19.4,56,29.67,10.0,NW,21.9,31.1,N/A,,Clear,310,2014-01-30 17:15:00
11:35 AM,33.1,17.6,53,29.70,10.0,NW,25.3,33.4,N/A,,Clear,320,2014-01-30 17:35:00
11:55 AM,32.2,15.8,51,29.72,10.0,NW,24.2,29.9,N/A,,Clear,310,2014-01-30 17:55:00
12:15 PM,32.2,15.8,51,29.73,10.0,NW,23.0,31.1,N/A,,Clear,320,2014-01-30 18:15:00
12:35 PM,32.0,15.6,51,29.74,10.0,NNW,19.6,27.6,N/A,,Clear,330,2014-01-30 18:35:00
12:55 PM,32.0,14.9,49,29.74,10.0,NNW,20.7,31.1,N/A,,Clear,330,2014-01-30 18:55:00
1:15 PM,32.4,14.5,48,29.76,10.0,WNW,24.2,27.6,N/A,,Clear,300,2014-01-30 19:15:00
1:35 PM,32.0,14.0,48,29.76,10.0,NW,25.3,29.9,N/A,,Clear,320,2014-01-30 19:35:00
1:55 PM,32.0,13.3,46,29.77,10.0,NNW,16.1,27.6,N/A,,Clear,340,2014-01-30 19:55:00
2:15 PM,32.0,13.1,46,29.78,10.0,NNW,19.6,28.8,N/A,,Clear,340,2014-01-30 20:15:00
2:35 PM,32.0,12.2,44,29.80,10.0,NNW,13.8,20.7,N/A,,Clear,340,2014-01-30 20:35:00
2:55 PM,32.0,11.8,43,29.81,10.0,North,12.7,21.9,N/A,,Clear,350,2014-01-30 20:55:00
3:15 PM,32.4,11.7,42,29.82,10.0,NNW,15.0,19.6,N/A,,Clear,340,2014-01-30 21:15:00
3:35 PM,32.2,11.5,42,29.84,10.0,NW,15.0,-,N/A,,Clear,320,2014-01-30 21:35:00
3:55 PM,31.8,11.1,42,29.85,10.0,NNW,11.5,17.3,N/A,,Clear,340,2014-01-30 21:55:00
4:15 PM,31.8,11.1,42,29.85,10.0,North,15.0,18.4,N/A,,Clear,350,2014-01-30 22:15:00
4:35 PM,31.1,11.1,43,29.88,10.0,NNW,10.4,-,N/A,,Clear,340,2014-01-30 22:35:00
4:55 PM,30.7,10.8,43,29.88,10.0,NNW,11.5,-,N/A,,Clear,330,2014-01-30 22:55:00
5:15 PM,29.3,10.4,45,29.91,10.0,NNW,8.1,-,N/A,,Clear,340,2014-01-30 23:15:00
5:35 PM,28.2,10.2,47,29.91,10.0,North,8.1,-,N/A,,Clear,350,2014-01-30 23:35:00
5:55 PM,27.5,10.2,48,29.91,10.0,NNW,6.9,-,N/A,,Clear,340,2014-01-30 23:55:00
6:15 PM,27.1,10.2,49,29.93,10.0,NNW,9.2,-,N/A,,Clear,340,2014-01-31 00:15:00
6:35 PM,25.5,9.9,52,29.95,10.0,North,3.5,-,N/A,,Clear,350,2014-01-31 00:35:00
6:55 PM,24.1,9.3,53,29.96,10.0,NNW,4.6,-,N/A,,Clear,340,2014-01-31 00:55:00
7:15 PM,23.0,9.3,56,29.97,10.0,North,5.8,-,N/A,,Clear,360,2014-01-31 01:15:00
7:35 PM,23.2,9.3,55,29.98,10.0,North,6.9,-,N/A,,Scattered Clouds,360,2014-01-31 01:35:00
7:55 PM,23.9,8.6,52,29.99,10.0,North,5.8,-,N/A,,Scattered Clouds,350,2014-01-31 01:55:00
8:15 PM,23.9,8.6,52,29.99,10.0,North,8.1,-,N/A,,Scattered Clouds,350,2014-01-31 02:15:00
8:35 PM,23.4,8.1,52,30.01,10.0,North,6.9,-,N/A,,Scattered Clouds,350,2014-01-31 02:35:00
8:55 PM,23.0,7.2,51,30.01,10.0,North,9.2,-,N/A,,Scattered Clouds,350,2014-01-31 02:55:00
9:15 PM,22.6,6.8,51,30.02,10.0,North,8.1,-,N/A,,Scattered Clouds,350,2014-01-31 03:15:00
9:35 PM,22.1,6.4,51,30.03,10.0,North,10.4,-,N/A,,Scattered Clouds,350,2014-01-31 03:35:00
9:55 PM,21.4,6.3,52,30.03,10.0,North,8.1,-,N/A,,Mostly Cloudy,10,2014-01-31 03:55:00
10:15 PM,20.8,6.3,53,30.04,10.0,North,5.8,-,N/A,,Scattered Clouds,350,2014-01-31 04:15:00
10:35 PM,20.3,5.9,54,30.05,10.0,North,8.1,-,N/A,,Mostly Cloudy,350,2014-01-31 04:35:00
10:55 PM,20.1,5.9,54,30.06,10.0,North,10.4,-,N/A,,Overcast,350,2014-01-31 04:55:00
11:15 PM,19.9,5.5,54,30.06,10.0,North,6.9,-,N/A,,Mostly Cloudy,360,2014-01-31 05:15:00
11:35 PM,19.8,4.6,52,30.06,10.0,NNW,8.1,-,N/A,,Mostly Cloudy,340,2014-01-31 05:35:00
11:55 PM,19.4,4.8,53,30.07,10.0,North,6.9,-,N/A,,Overcast,350,2014-01-31 05:55:00